Main page
METAR-TAF:

METAR-TAF

Airports :

Istres-Le Tubé Air Base

Istres, France

latitude: 43-31N, longitude: 004-56E, elevation: 23 m

Current weather observation

The report was made 14 minutes ago, at 02:30 UTC
Calm wind
Temperature 21°C
Humidity 78%
Pressure 1012 hPa
Visibility 10 km or more
no clouds below 1500 m and no cumulonimbus

METAR: LFMI 150230Z AUTO 00000KT CAVOK 21/17 Q1012 TEMPO 03010KT

Time: 04:44 (02:44 UTC)

Forecast

The report was made 44 minutes ago, at 02:00 UTC
Forecast valid from 15 at 03 UTC to 16 at 03 UTC
Wind 3 kt from variable directions
Visibility 10 km or more
no clouds below 1500 m and no cumulonimbus
Temporary
from 15 at 04 UTC to 15 at 09 UTC
Wind 10 kt from the North/Northeast
Becoming
from 15 at 12 UTC to 15 at 14 UTC
Wind 10 kt from the South
Becoming
from 15 at 18 UTC to 15 at 20 UTC
Wind 5 kt from the East

TAF: LFMI 150200Z 1503/1603 VRB03KT CAVOK TEMPO 1504/1509 03010KT BECMG 1512/1514 19010KT BECMG 1518/1520 10005KT

Weather observations and forecasts of more than 4000 airports (METAR and TAF reports).

The available stations are represented by yellow and red dots on the map.

Hover mouse over dot to see the name of the station.

Then click to see weather observations and forecasts.

To change the map : click on the green buttons with a black cross to zoom in, on the green button with a dash to zoom out, or on the green arrows for adjacent maps.


METAR-TAF: